Terminal Aerodrome Forecast
Issued by NWS Twin Cities, MN

Home | Current Version | Previous Version | Text Only | Print | Product List | Glossary Off
Versions: 1 2 3 4 5 6 7 8 9 10 11 12 13 14 15 16 17

999
FTUS43 KMPX 281303 AAA
TAFEAU
TAF AMD
KEAU 281303Z 2813/2912 07009KT P6SM VCSH OVC040
      TEMPO 2813/2816 3SM -SHRA
     FM282000 05008KT P6SM VCSH OVC050
     FM290400 03004KT P6SM SCT025 OVC040=

USA.gov is the U.S. government's official web portal to all federal, state and local government web resources and services.